sensor_id;sensor_type;location;lat;lon;timestamp;temperature;humidity
57660;DHT22;43485;45.680;15.702;2023-06-26T00:01:31;18.60;62.80
57660;DHT22;43485;45.680;15.702;2023-06-26T00:06:41;18.60;63.00
57660;DHT22;43485;45.680;15.702;2023-06-26T00:09:07;18.60;63.00
57660;DHT22;43485;45.680;15.702;2023-06-26T00:11:33;18.50;62.70
57660;DHT22;43485;45.680;15.702;2023-06-26T00:13:59;18.50;63.30
57660;DHT22;43485;45.680;15.702;2023-06-26T00:16:26;18.50;63.30
57660;DHT22;43485;45.680;15.702;2023-06-26T00:18:52;18.50;63.50
57660;DHT22;43485;45.680;15.702;2023-06-26T00:21:19;18.50;63.70
57660;DHT22;43485;45.680;15.702;2023-06-26T00:23:45;18.50;64.10
57660;DHT22;43485;45.680;15.702;2023-06-26T00:26:11;18.40;63.90
57660;DHT22;43485;45.680;15.702;2023-06-26T00:28:37;18.40;63.50
57660;DHT22;43485;45.680;15.702;2023-06-26T00:31:03;18.30;64.30
57660;DHT22;43485;45.680;15.702;2023-06-26T00:33:29;18.40;63.80
57660;DHT22;43485;45.680;15.702;2023-06-26T00:35:55;18.40;64.30
57660;DHT22;43485;45.680;15.702;2023-06-26T00:38:21;18.40;64.40
57660;DHT22;43485;45.680;15.702;2023-06-26T00:40:47;18.30;64.10
57660;DHT22;43485;45.680;15.702;2023-06-26T00:43:12;18.40;64.20
57660;DHT22;43485;45.680;15.702;2023-06-26T00:45:38;18.40;65.20
57660;DHT22;43485;45.680;15.702;2023-06-26T00:48:04;18.30;64.40
57660;DHT22;43485;45.680;15.702;2023-06-26T00:50:31;18.30;64.60
57660;DHT22;43485;45.680;15.702;2023-06-26T00:52:57;18.20;64.30
57660;DHT22;43485;45.680;15.702;2023-06-26T00:58:11;18.30;65.00
57660;DHT22;43485;45.680;15.702;2023-06-26T01:00:37;18.30;64.90
57660;DHT22;43485;45.680;15.702;2023-06-26T01:03:03;18.20;65.00
57660;DHT22;43485;45.680;15.702;2023-06-26T01:05:29;18.20;65.00
57660;DHT22;43485;45.680;15.702;2023-06-26T01:07:57;18.20;64.80
57660;DHT22;43485;45.680;15.702;2023-06-26T01:10:23;18.20;64.90
57660;DHT22;43485;45.680;15.702;2023-06-26T01:12:49;18.20;64.60
57660;DHT22;43485;45.680;15.702;2023-06-26T01:15:15;18.20;65.00
57660;DHT22;43485;45.680;15.702;2023-06-26T01:17:41;18.20;65.00
57660;DHT22;43485;45.680;15.702;2023-06-26T01:20:10;18.20;64.20
57660;DHT22;43485;45.680;15.702;2023-06-26T01:28:24;18.00;64.80
57660;DHT22;43485;45.680;15.702;2023-06-26T01:30:50;18.00;64.50
57660;DHT22;43485;45.680;15.702;2023-06-26T01:33:16;17.90;64.20
57660;DHT22;43485;45.680;15.702;2023-06-26T01:35:43;17.90;64.80
57660;DHT22;43485;45.680;15.702;2023-06-26T01:40:54;17.90;65.10
57660;DHT22;43485;45.680;15.702;2023-06-26T01:54:24;17.70;65.30
57660;DHT22;43485;45.680;15.702;2023-06-26T01:56:52;17.70;65.30
57660;DHT22;43485;45.680;15.702;2023-06-26T01:59:19;17.60;65.10
57660;DHT22;43485;45.680;15.702;2023-06-26T02:01:46;17.60;65.10
57660;DHT22;43485;45.680;15.702;2023-06-26T02:04:12;17.50;65.10
57660;DHT22;43485;45.680;15.702;2023-06-26T02:06:38;17.30;64.60
57660;DHT22;43485;45.680;15.702;2023-06-26T02:09:04;17.30;65.30
57660;DHT22;43485;45.680;15.702;2023-06-26T02:11:30;17.20;65.30
57660;DHT22;43485;45.680;15.702;2023-06-26T02:13:56;17.20;65.30
57660;DHT22;43485;45.680;15.702;2023-06-26T02:16:22;17.20;65.30
57660;DHT22;43485;45.680;15.702;2023-06-26T02:18:48;17.20;65.00
57660;DHT22;43485;45.680;15.702;2023-06-26T02:21:14;17.20;65.00
57660;DHT22;43485;45.680;15.702;2023-06-26T02:23:40;17.20;65.00
57660;DHT22;43485;45.680;15.702;2023-06-26T02:26:06;17.10;65.00
57660;DHT22;43485;45.680;15.702;2023-06-26T02:28:32;17.10;65.30
57660;DHT22;43485;45.680;15.702;2023-06-26T02:30:59;17.20;65.30
57660;DHT22;43485;45.680;15.702;2023-06-26T02:33:26;17.20;65.70
57660;DHT22;43485;45.680;15.702;2023-06-26T02:35:51;17.10;66.00
57660;DHT22;43485;45.680;15.702;2023-06-26T02:38:18;17.10;66.00
57660;DHT22;43485;45.680;15.702;2023-06-26T02:40:44;17.10;65.70
57660;DHT22;43485;45.680;15.702;2023-06-26T02:43:10;17.10;65.50
57660;DHT22;43485;45.680;15.702;2023-06-26T02:45:36;17.10;65.40
57660;DHT22;43485;45.680;15.702;2023-06-26T02:48:01;17.10;65.40
57660;DHT22;43485;45.680;15.702;2023-06-26T02:50:28;17.10;65.50
57660;DHT22;43485;45.680;15.702;2023-06-26T02:52:53;17.10;65.70
57660;DHT22;43485;45.680;15.702;2023-06-26T02:55:19;17.00;65.70
57660;DHT22;43485;45.680;15.702;2023-06-26T02:57:46;17.10;65.90
57660;DHT22;43485;45.680;15.702;2023-06-26T03:00:12;17.10;66.10
57660;DHT22;43485;45.680;15.702;2023-06-26T03:02:38;17.00;66.10
57660;DHT22;43485;45.680;15.702;2023-06-26T03:05:04;17.10;66.10
57660;DHT22;43485;45.680;15.702;2023-06-26T03:07:30;17.00;65.80
57660;DHT22;43485;45.680;15.702;2023-06-26T03:09:56;17.00;66.00
57660;DHT22;43485;45.680;15.702;2023-06-26T03:12:22;17.10;66.00
57660;DHT22;43485;45.680;15.702;2023-06-26T03:14:49;17.00;65.90
57660;DHT22;43485;45.680;15.702;2023-06-26T03:17:15;17.00;66.00
57660;DHT22;43485;45.680;15.702;2023-06-26T03:19:41;17.00;66.00
57660;DHT22;43485;45.680;15.702;2023-06-26T03:22:07;16.90;66.00
57660;DHT22;43485;45.680;15.702;2023-06-26T03:24:33;16.90;66.20
57660;DHT22;43485;45.680;15.702;2023-06-26T03:26:59;16.90;66.10
57660;DHT22;43485;45.680;15.702;2023-06-26T03:29:25;16.90;66.00
57660;DHT22;43485;45.680;15.702;2023-06-26T03:31:51;16.90;66.20
57660;DHT22;43485;45.680;15.702;2023-06-26T03:34:17;16.90;66.30
57660;DHT22;43485;45.680;15.702;2023-06-26T03:36:43;16.90;66.20
57660;DHT22;43485;45.680;15.702;2023-06-26T03:39:09;16.90;66.20
57660;DHT22;43485;45.680;15.702;2023-06-26T03:41:35;16.90;66.20
57660;DHT22;43485;45.680;15.702;2023-06-26T03:44:00;16.90;66.10
57660;DHT22;43485;45.680;15.702;2023-06-26T03:46:28;16.90;66.10
57660;DHT22;43485;45.680;15.702;2023-06-26T03:48:54;16.90;66.20
57660;DHT22;43485;45.680;15.702;2023-06-26T03:51:20;16.90;66.60
57660;DHT22;43485;45.680;15.702;2023-06-26T03:53:46;16.90;66.70
57660;DHT22;43485;45.680;15.702;2023-06-26T03:56:12;17.00;66.60
57660;DHT22;43485;45.680;15.702;2023-06-26T03:58:39;17.00;66.60
57660;DHT22;43485;45.680;15.702;2023-06-26T04:01:05;16.90;66.60
57660;DHT22;43485;45.680;15.702;2023-06-26T04:03:31;16.90;66.70
57660;DHT22;43485;45.680;15.702;2023-06-26T04:05:57;16.90;66.60
57660;DHT22;43485;45.680;15.702;2023-06-26T04:08:23;17.00;66.70
57660;DHT22;43485;45.680;15.702;2023-06-26T04:10:52;17.00;66.40
57660;DHT22;43485;45.680;15.702;2023-06-26T04:13:19;17.00;66.30
57660;DHT22;43485;45.680;15.702;2023-06-26T04:15:44;17.10;66.70
57660;DHT22;43485;45.680;15.702;2023-06-26T04:18:10;17.10;66.70
57660;DHT22;43485;45.680;15.702;2023-06-26T04:23:42;17.20;66.70
57660;DHT22;43485;45.680;15.702;2023-06-26T04:26:08;17.20;67.30
57660;DHT22;43485;45.680;15.702;2023-06-26T04:28:34;17.20;67.20
57660;DHT22;43485;45.680;15.702;2023-06-26T04:33:45;17.30;67.40
57660;DHT22;43485;45.680;15.702;2023-06-26T04:39:04;17.40;66.90
57660;DHT22;43485;45.680;15.702;2023-06-26T04:41:30;17.50;68.00
57660;DHT22;43485;45.680;15.702;2023-06-26T04:43:56;17.50;67.40
57660;DHT22;43485;45.680;15.702;2023-06-26T04:46:21;17.60;67.70
57660;DHT22;43485;45.680;15.702;2023-06-26T04:48:47;17.60;67.50
57660;DHT22;43485;45.680;15.702;2023-06-26T04:51:13;17.70;67.30
57660;DHT22;43485;45.680;15.702;2023-06-26T04:53:39;17.70;67.30
57660;DHT22;43485;45.680;15.702;2023-06-26T04:56:05;17.80;67.10
57660;DHT22;43485;45.680;15.702;2023-06-26T04:58:31;17.80;67.30
57660;DHT22;43485;45.680;15.702;2023-06-26T05:00:57;17.90;67.20
57660;DHT22;43485;45.680;15.702;2023-06-26T05:03:24;18.00;67.30
57660;DHT22;43485;45.680;15.702;2023-06-26T05:05:49;18.00;67.00
57660;DHT22;43485;45.680;15.702;2023-06-26T05:11:01;18.20;66.90
57660;DHT22;43485;45.680;15.702;2023-06-26T05:13:27;18.20;67.00
57660;DHT22;43485;45.680;15.702;2023-06-26T05:15:53;18.30;66.90
57660;DHT22;43485;45.680;15.702;2023-06-26T05:18:19;18.40;67.10
57660;DHT22;43485;45.680;15.702;2023-06-26T05:20:45;18.40;66.90
57660;DHT22;43485;45.680;15.702;2023-06-26T05:23:11;18.50;66.20
57660;DHT22;43485;45.680;15.702;2023-06-26T05:25:38;18.60;66.60
57660;DHT22;43485;45.680;15.702;2023-06-26T05:28:04;18.60;66.20
57660;DHT22;43485;45.680;15.702;2023-06-26T05:30:31;18.70;66.60
57660;DHT22;43485;45.680;15.702;2023-06-26T05:33:00;18.80;66.40
57660;DHT22;43485;45.680;15.702;2023-06-26T05:35:28;18.80;66.40
57660;DHT22;43485;45.680;15.702;2023-06-26T05:37:58;18.90;66.60
57660;DHT22;43485;45.680;15.702;2023-06-26T05:40:24;19.00;65.90
57660;DHT22;43485;45.680;15.702;2023-06-26T05:42:50;19.00;67.00
57660;DHT22;43485;45.680;15.702;2023-06-26T05:45:17;19.10;66.60
57660;DHT22;43485;45.680;15.702;2023-06-26T05:47:42;19.20;67.60
57660;DHT22;43485;45.680;15.702;2023-06-26T05:50:09;19.30;67.10
57660;DHT22;43485;45.680;15.702;2023-06-26T05:52:35;19.40;66.50
57660;DHT22;43485;45.680;15.702;2023-06-26T05:57:48;19.70;65.70
57660;DHT22;43485;45.680;15.702;2023-06-26T06:00:15;19.80;65.40
57660;DHT22;43485;45.680;15.702;2023-06-26T06:02:42;19.90;64.70
57660;DHT22;43485;45.680;15.702;2023-06-26T06:05:08;20.00;64.90
57660;DHT22;43485;45.680;15.702;2023-06-26T06:07:34;20.10;64.20
57660;DHT22;43485;45.680;15.702;2023-06-26T06:10:01;20.20;64.60
57660;DHT22;43485;45.680;15.702;2023-06-26T06:12:28;20.40;64.30
57660;DHT22;43485;45.680;15.702;2023-06-26T06:14:55;20.50;64.40
57660;DHT22;43485;45.680;15.702;2023-06-26T06:17:21;20.60;63.90
57660;DHT22;43485;45.680;15.702;2023-06-26T06:19:47;20.70;63.80
57660;DHT22;43485;45.680;15.702;2023-06-26T06:22:13;20.80;63.40
57660;DHT22;43485;45.680;15.702;2023-06-26T06:24:39;20.90;63.20
57660;DHT22;43485;45.680;15.702;2023-06-26T06:27:05;21.00;62.30
57660;DHT22;43485;45.680;15.702;2023-06-26T06:29:31;21.20;62.80
57660;DHT22;43485;45.680;15.702;2023-06-26T06:31:57;21.30;62.60
57660;DHT22;43485;45.680;15.702;2023-06-26T06:34:23;21.40;62.30
57660;DHT22;43485;45.680;15.702;2023-06-26T06:36:49;21.50;62.10
57660;DHT22;43485;45.680;15.702;2023-06-26T06:39:15;21.60;62.00
57660;DHT22;43485;45.680;15.702;2023-06-26T06:41:41;21.70;61.80
57660;DHT22;43485;45.680;15.702;2023-06-26T06:44:07;21.80;61.20
57660;DHT22;43485;45.680;15.702;2023-06-26T06:46:33;22.00;61.70
57660;DHT22;43485;45.680;15.702;2023-06-26T06:48:59;22.10;61.30
57660;DHT22;43485;45.680;15.702;2023-06-26T06:51:25;22.20;60.30
57660;DHT22;43485;45.680;15.702;2023-06-26T06:53:51;22.40;60.10
57660;DHT22;43485;45.680;15.702;2023-06-26T06:56:17;22.50;60.50
57660;DHT22;43485;45.680;15.702;2023-06-26T06:58:43;22.60;60.30
57660;DHT22;43485;45.680;15.702;2023-06-26T07:01:11;22.70;60.30
57660;DHT22;43485;45.680;15.702;2023-06-26T07:03:56;22.80;59.80
57660;DHT22;43485;45.680;15.702;2023-06-26T07:06:23;23.00;59.80
57660;DHT22;43485;45.680;15.702;2023-06-26T07:08:48;23.10;59.30
57660;DHT22;43485;45.680;15.702;2023-06-26T07:11:15;23.20;58.90
57660;DHT22;43485;45.680;15.702;2023-06-26T07:13:41;23.40;58.60
57660;DHT22;43485;45.680;15.702;2023-06-26T07:16:06;23.60;58.50
57660;DHT22;43485;45.680;15.702;2023-06-26T07:18:35;23.80;58.40
57660;DHT22;43485;45.680;15.702;2023-06-26T07:21:02;23.90;58.10
57660;DHT22;43485;45.680;15.702;2023-06-26T07:23:28;23.90;58.20
57660;DHT22;43485;45.680;15.702;2023-06-26T07:25:54;24.00;58.90
57660;DHT22;43485;45.680;15.702;2023-06-26T07:28:20;24.10;58.10
57660;DHT22;43485;45.680;15.702;2023-06-26T07:30:45;24.10;58.20
57660;DHT22;43485;45.680;15.702;2023-06-26T07:33:11;24.20;57.50
57660;DHT22;43485;45.680;15.702;2023-06-26T07:35:37;24.20;57.30
57660;DHT22;43485;45.680;15.702;2023-06-26T07:38:03;24.30;57.20
57660;DHT22;43485;45.680;15.702;2023-06-26T07:40:29;24.40;57.70
57660;DHT22;43485;45.680;15.702;2023-06-26T07:42:55;24.50;56.70
57660;DHT22;43485;45.680;15.702;2023-06-26T07:45:23;24.60;56.30
57660;DHT22;43485;45.680;15.702;2023-06-26T07:47:49;24.70;56.20
57660;DHT22;43485;45.680;15.702;2023-06-26T07:50:15;24.80;55.80
57660;DHT22;43485;45.680;15.702;2023-06-26T07:52:46;24.90;55.70
57660;DHT22;43485;45.680;15.702;2023-06-26T07:55:13;25.00;54.60
57660;DHT22;43485;45.680;15.702;2023-06-26T07:57:38;25.20;55.20
57660;DHT22;43485;45.680;15.702;2023-06-26T08:00:05;25.30;55.00
57660;DHT22;43485;45.680;15.702;2023-06-26T08:02:33;25.30;54.40
57660;DHT22;43485;45.680;15.702;2023-06-26T08:04:59;25.40;54.30
57660;DHT22;43485;45.680;15.702;2023-06-26T08:07:25;25.50;54.20
57660;DHT22;43485;45.680;15.702;2023-06-26T08:09:51;25.60;53.80
57660;DHT22;43485;45.680;15.702;2023-06-26T08:12:17;25.80;53.80
57660;DHT22;43485;45.680;15.702;2023-06-26T08:14:42;25.80;53.10
57660;DHT22;43485;45.680;15.702;2023-06-26T08:17:09;25.90;52.60
57660;DHT22;43485;45.680;15.702;2023-06-26T08:19:35;25.90;52.00
57660;DHT22;43485;45.680;15.702;2023-06-26T08:22:01;26.00;52.20
57660;DHT22;43485;45.680;15.702;2023-06-26T08:24:27;26.10;52.20
57660;DHT22;43485;45.680;15.702;2023-06-26T08:26:53;26.20;50.50
57660;DHT22;43485;45.680;15.702;2023-06-26T08:29:18;26.30;50.50
57660;DHT22;43485;45.680;15.702;2023-06-26T08:31:44;26.50;50.50
57660;DHT22;43485;45.680;15.702;2023-06-26T08:34:10;26.60;50.30
57660;DHT22;43485;45.680;15.702;2023-06-26T08:36:37;26.70;50.20
57660;DHT22;43485;45.680;15.702;2023-06-26T08:39:03;26.80;49.50
57660;DHT22;43485;45.680;15.702;2023-06-26T08:41:30;26.90;48.30
57660;DHT22;43485;45.680;15.702;2023-06-26T08:43:57;27.00;48.70
57660;DHT22;43485;45.680;15.702;2023-06-26T08:46:23;27.10;49.30
57660;DHT22;43485;45.680;15.702;2023-06-26T08:48:49;27.30;47.00
57660;DHT22;43485;45.680;15.702;2023-06-26T08:51:21;27.30;47.10
57660;DHT22;43485;45.680;15.702;2023-06-26T08:59:19;27.50;44.60
57660;DHT22;43485;45.680;15.702;2023-06-26T09:01:45;27.70;41.40
57660;DHT22;43485;45.680;15.702;2023-06-26T09:04:11;27.70;42.00
57660;DHT22;43485;45.680;15.702;2023-06-26T09:06:37;27.70;43.30
57660;DHT22;43485;45.680;15.702;2023-06-26T09:09:04;27.90;43.90
57660;DHT22;43485;45.680;15.702;2023-06-26T09:11:30;28.00;44.40
57660;DHT22;43485;45.680;15.702;2023-06-26T09:13:56;28.10;42.90
57660;DHT22;43485;45.680;15.702;2023-06-26T09:21:56;28.30;41.50
57660;DHT22;43485;45.680;15.702;2023-06-26T09:24:22;28.40;40.80
57660;DHT22;43485;45.680;15.702;2023-06-26T09:26:48;28.50;40.70
57660;DHT22;43485;45.680;15.702;2023-06-26T09:29:15;28.60;40.00
57660;DHT22;43485;45.680;15.702;2023-06-26T09:31:41;28.70;39.30
57660;DHT22;43485;45.680;15.702;2023-06-26T09:34:06;28.90;38.90
57660;DHT22;43485;45.680;15.702;2023-06-26T09:36:33;29.10;38.30
57660;DHT22;43485;45.680;15.702;2023-06-26T09:39:00;29.30;38.20
57660;DHT22;43485;45.680;15.702;2023-06-26T09:41:26;29.70;37.70
57660;DHT22;43485;45.680;15.702;2023-06-26T09:43:52;30.00;37.70
57660;DHT22;43485;45.680;15.702;2023-06-26T09:51:48;31.70;34.80
57660;DHT22;43485;45.680;15.702;2023-06-26T09:54:15;32.50;32.80
57660;DHT22;43485;45.680;15.702;2023-06-26T09:56:42;33.00;31.30
57660;DHT22;43485;45.680;15.702;2023-06-26T09:59:08;33.90;31.00
57660;DHT22;43485;45.680;15.702;2023-06-26T10:01:40;34.70;29.30
57660;DHT22;43485;45.680;15.702;2023-06-26T10:04:06;35.00;28.60
57660;DHT22;43485;45.680;15.702;2023-06-26T10:06:33;35.40;27.80
57660;DHT22;43485;45.680;15.702;2023-06-26T10:09:02;36.00;27.70
57660;DHT22;43485;45.680;15.702;2023-06-26T10:17:19;38.10;24.80
57660;DHT22;43485;45.680;15.702;2023-06-26T10:19:46;38.70;24.70
57660;DHT22;43485;45.680;15.702;2023-06-26T10:22:14;39.50;24.70
57660;DHT22;43485;45.680;15.702;2023-06-26T10:24:41;40.20;24.10
57660;DHT22;43485;45.680;15.702;2023-06-26T10:29:54;41.10;21.80
57660;DHT22;43485;45.680;15.702;2023-06-26T10:32:23;41.10;20.50
57660;DHT22;43485;45.680;15.702;2023-06-26T10:34:50;41.70;21.30
57660;DHT22;43485;45.680;15.702;2023-06-26T10:37:17;42.40;21.50
57660;DHT22;43485;45.680;15.702;2023-06-26T10:42:37;43.20;20.50
57660;DHT22;43485;45.680;15.702;2023-06-26T10:47:51;44.50;18.80
57660;DHT22;43485;45.680;15.702;2023-06-26T11:06:43;47.20;15.90
57660;DHT22;43485;45.680;15.702;2023-06-26T11:09:11;47.60;15.60
57660;DHT22;43485;45.680;15.702;2023-06-26T11:14:25;48.70;15.30
57660;DHT22;43485;45.680;15.702;2023-06-26T11:16:52;49.20;15.30
57660;DHT22;43485;45.680;15.702;2023-06-26T11:19:18;49.60;15.30
57660;DHT22;43485;45.680;15.702;2023-06-26T11:21:45;50.10;14.40
57660;DHT22;43485;45.680;15.702;2023-06-26T11:24:12;50.20;13.20
57660;DHT22;43485;45.680;15.702;2023-06-26T11:29:25;50.80;13.10
57660;DHT22;43485;45.680;15.702;2023-06-26T11:31:55;51.40;13.50
57660;DHT22;43485;45.680;15.702;2023-06-26T11:34:25;51.40;12.90
57660;DHT22;43485;45.680;15.702;2023-06-26T11:36:56;51.70;12.60
57660;DHT22;43485;45.680;15.702;2023-06-26T11:39:22;51.90;12.50
57660;DHT22;43485;45.680;15.702;2023-06-26T11:41:48;50.60;12.80
57660;DHT22;43485;45.680;15.702;2023-06-26T11:44:14;50.60;12.40
57660;DHT22;43485;45.680;15.702;2023-06-26T11:46:45;49.40;13.50
57660;DHT22;43485;45.680;15.702;2023-06-26T11:49:11;49.00;13.50
57660;DHT22;43485;45.680;15.702;2023-06-26T11:51:37;49.80;13.40
57660;DHT22;43485;45.680;15.702;2023-06-26T11:54:03;50.50;12.80
57660;DHT22;43485;45.680;15.702;2023-06-26T11:56:30;50.60;12.80
57660;DHT22;43485;45.680;15.702;2023-06-26T12:01:41;51.60;12.70
57660;DHT22;43485;45.680;15.702;2023-06-26T12:04:10;51.80;11.30
57660;DHT22;43485;45.680;15.702;2023-06-26T12:06:39;52.10;12.30
57660;DHT22;43485;45.680;15.702;2023-06-26T12:09:07;52.60;11.70
57660;DHT22;43485;45.680;15.702;2023-06-26T12:11:35;52.80;11.20
57660;DHT22;43485;45.680;15.702;2023-06-26T12:14:02;52.50;11.10
57660;DHT22;43485;45.680;15.702;2023-06-26T12:16:29;51.00;11.80
57660;DHT22;43485;45.680;15.702;2023-06-26T12:24:07;51.80;11.50
57660;DHT22;43485;45.680;15.702;2023-06-26T12:26:34;52.30;12.00
57660;DHT22;43485;45.680;15.702;2023-06-26T12:32:01;50.00;12.90
57660;DHT22;43485;45.680;15.702;2023-06-26T12:34:29;50.70;12.40
57660;DHT22;43485;45.680;15.702;2023-06-26T12:37:16;49.90;12.50
57660;DHT22;43485;45.680;15.702;2023-06-26T12:42:32;46.80;14.00
57660;DHT22;43485;45.680;15.702;2023-06-26T12:44:58;45.70;15.00
57660;DHT22;43485;45.680;15.702;2023-06-26T12:50:09;48.20;14.40
57660;DHT22;43485;45.680;15.702;2023-06-26T12:52:35;48.90;13.60
57660;DHT22;43485;45.680;15.702;2023-06-26T12:55:01;49.40;13.90
57660;DHT22;43485;45.680;15.702;2023-06-26T12:57:27;49.50;13.70
57660;DHT22;43485;45.680;15.702;2023-06-26T12:59:53;48.50;13.40
57660;DHT22;43485;45.680;15.702;2023-06-26T13:02:19;47.20;13.80
57660;DHT22;43485;45.680;15.702;2023-06-26T13:04:45;46.10;15.40
57660;DHT22;43485;45.680;15.702;2023-06-26T13:07:11;45.30;16.50
57660;DHT22;43485;45.680;15.702;2023-06-26T13:09:37;44.40;17.10
57660;DHT22;43485;45.680;15.702;2023-06-26T13:12:04;43.70;17.60
57660;DHT22;43485;45.680;15.702;2023-06-26T13:14:31;43.00;18.00
57660;DHT22;43485;45.680;15.702;2023-06-26T13:16:58;42.40;18.60
57660;DHT22;43485;45.680;15.702;2023-06-26T13:19:25;41.90;18.60
57660;DHT22;43485;45.680;15.702;2023-06-26T13:21:51;41.40;18.70
57660;DHT22;43485;45.680;15.702;2023-06-26T13:24:17;40.80;19.20
57660;DHT22;43485;45.680;15.702;2023-06-26T13:26:43;40.30;20.20
57660;DHT22;43485;45.680;15.702;2023-06-26T13:29:09;39.90;20.40
57660;DHT22;43485;45.680;15.702;2023-06-26T13:31:35;39.70;20.10
57660;DHT22;43485;45.680;15.702;2023-06-26T13:34:01;39.40;20.60
57660;DHT22;43485;45.680;15.702;2023-06-26T13:36:29;39.10;20.90
57660;DHT22;43485;45.680;15.702;2023-06-26T13:38:54;38.90;20.90
57660;DHT22;43485;45.680;15.702;2023-06-26T13:44:05;38.50;21.20
57660;DHT22;43485;45.680;15.702;2023-06-26T13:46:31;38.10;21.60
57660;DHT22;43485;45.680;15.702;2023-06-26T13:48:57;37.90;21.30
57660;DHT22;43485;45.680;15.702;2023-06-26T13:51:23;37.30;22.20
57660;DHT22;43485;45.680;15.702;2023-06-26T13:53:49;37.10;22.80
57660;DHT22;43485;45.680;15.702;2023-06-26T13:56:15;36.80;21.90
57660;DHT22;43485;45.680;15.702;2023-06-26T13:58:41;36.60;22.80
57660;DHT22;43485;45.680;15.702;2023-06-26T14:01:07;36.60;23.30
57660;DHT22;43485;45.680;15.702;2023-06-26T14:03:32;36.50;22.90
57660;DHT22;43485;45.680;15.702;2023-06-26T14:05:58;36.30;23.20
57660;DHT22;43485;45.680;15.702;2023-06-26T14:08:24;36.20;23.80
57660;DHT22;43485;45.680;15.702;2023-06-26T14:10:50;36.20;24.10
57660;DHT22;43485;45.680;15.702;2023-06-26T14:13:16;36.10;24.30
57660;DHT22;43485;45.680;15.702;2023-06-26T14:15:42;35.90;23.30
57660;DHT22;43485;45.680;15.702;2023-06-26T14:18:09;35.80;23.70
57660;DHT22;43485;45.680;15.702;2023-06-26T14:20:35;35.80;24.00
57660;DHT22;43485;45.680;15.702;2023-06-26T14:23:01;35.70;24.20
57660;DHT22;43485;45.680;15.702;2023-06-26T14:25:27;35.60;24.40
57660;DHT22;43485;45.680;15.702;2023-06-26T14:30:38;35.30;24.80
57660;DHT22;43485;45.680;15.702;2023-06-26T14:33:04;35.20;24.50
57660;DHT22;43485;45.680;15.702;2023-06-26T14:35:30;35.10;24.70
57660;DHT22;43485;45.680;15.702;2023-06-26T14:37:56;35.10;25.00
57660;DHT22;43485;45.680;15.702;2023-06-26T14:40:21;35.10;25.30
57660;DHT22;43485;45.680;15.702;2023-06-26T14:42:47;35.00;25.40
57660;DHT22;43485;45.680;15.702;2023-06-26T14:45:13;35.00;25.30
57660;DHT22;43485;45.680;15.702;2023-06-26T14:47:39;35.00;25.20
57660;DHT22;43485;45.680;15.702;2023-06-26T14:50:05;34.90;25.00
57660;DHT22;43485;45.680;15.702;2023-06-26T14:52:33;34.90;25.00
57660;DHT22;43485;45.680;15.702;2023-06-26T14:54:59;34.90;25.30
57660;DHT22;43485;45.680;15.702;2023-06-26T14:57:25;34.90;25.90
57660;DHT22;43485;45.680;15.702;2023-06-26T14:59:51;34.80;26.00
57660;DHT22;43485;45.680;15.702;2023-06-26T15:02:17;34.70;26.30
57660;DHT22;43485;45.680;15.702;2023-06-26T15:04:43;34.70;26.20
57660;DHT22;43485;45.680;15.702;2023-06-26T15:07:11;34.60;26.30
57660;DHT22;43485;45.680;15.702;2023-06-26T15:09:37;34.50;26.40
57660;DHT22;43485;45.680;15.702;2023-06-26T15:12:03;34.50;26.50
57660;DHT22;43485;45.680;15.702;2023-06-26T15:14:29;34.30;26.30
57660;DHT22;43485;45.680;15.702;2023-06-26T15:16:54;34.30;26.10
57660;DHT22;43485;45.680;15.702;2023-06-26T15:19:20;34.10;26.70
57660;DHT22;43485;45.680;15.702;2023-06-26T15:21:46;34.10;26.70
57660;DHT22;43485;45.680;15.702;2023-06-26T15:24:12;34.10;26.60
57660;DHT22;43485;45.680;15.702;2023-06-26T15:26:38;34.00;26.80
57660;DHT22;43485;45.680;15.702;2023-06-26T15:29:04;33.90;26.50
57660;DHT22;43485;45.680;15.702;2023-06-26T15:31:30;33.90;26.50
57660;DHT22;43485;45.680;15.702;2023-06-26T15:33:56;33.90;26.60
57660;DHT22;43485;45.680;15.702;2023-06-26T15:36:22;33.80;26.40
57660;DHT22;43485;45.680;15.702;2023-06-26T15:38:48;33.80;26.80
57660;DHT22;43485;45.680;15.702;2023-06-26T15:41:14;33.70;26.80
57660;DHT22;43485;45.680;15.702;2023-06-26T15:43:40;33.70;27.00
57660;DHT22;43485;45.680;15.702;2023-06-26T15:46:08;33.60;27.20
57660;DHT22;43485;45.680;15.702;2023-06-26T15:48:34;33.50;27.20
57660;DHT22;43485;45.680;15.702;2023-06-26T15:51:00;33.60;26.80
57660;DHT22;43485;45.680;15.702;2023-06-26T15:56:11;33.30;27.30
57660;DHT22;43485;45.680;15.702;2023-06-26T15:58:37;33.30;27.60
57660;DHT22;43485;45.680;15.702;2023-06-26T16:01:08;33.20;27.80
57660;DHT22;43485;45.680;15.702;2023-06-26T16:03:34;33.20;27.80
57660;DHT22;43485;45.680;15.702;2023-06-26T16:06:01;33.20;28.10
57660;DHT22;43485;45.680;15.702;2023-06-26T16:08:27;33.20;27.40
57660;DHT22;43485;45.680;15.702;2023-06-26T16:10:53;33.10;27.50
57660;DHT22;43485;45.680;15.702;2023-06-26T16:13:19;33.10;27.70
57660;DHT22;43485;45.680;15.702;2023-06-26T16:15:47;33.00;28.10
57660;DHT22;43485;45.680;15.702;2023-06-26T16:18:14;32.90;27.50
57660;DHT22;43485;45.680;15.702;2023-06-26T16:20:40;32.90;27.60
57660;DHT22;43485;45.680;15.702;2023-06-26T16:23:06;32.90;27.90
57660;DHT22;43485;45.680;15.702;2023-06-26T16:25:32;32.80;28.10
57660;DHT22;43485;45.680;15.702;2023-06-26T16:27:58;32.80;28.10
57660;DHT22;43485;45.680;15.702;2023-06-26T16:30:24;32.70;28.30
57660;DHT22;43485;45.680;15.702;2023-06-26T16:32:50;32.60;27.90
57660;DHT22;43485;45.680;15.702;2023-06-26T16:35:18;32.60;28.80
57660;DHT22;43485;45.680;15.702;2023-06-26T16:37:44;32.60;28.80
57660;DHT22;43485;45.680;15.702;2023-06-26T16:40:10;32.50;29.10
57660;DHT22;43485;45.680;15.702;2023-06-26T16:42:36;32.50;29.10
57660;DHT22;43485;45.680;15.702;2023-06-26T16:45:02;32.40;29.20
57660;DHT22;43485;45.680;15.702;2023-06-26T16:47:28;32.30;29.30
57660;DHT22;43485;45.680;15.702;2023-06-26T16:49:55;32.30;29.70
57660;DHT22;43485;45.680;15.702;2023-06-26T16:52:21;32.20;29.80
57660;DHT22;43485;45.680;15.702;2023-06-26T16:54:47;32.10;30.00
57660;DHT22;43485;45.680;15.702;2023-06-26T16:57:14;32.10;30.20
57660;DHT22;43485;45.680;15.702;2023-06-26T16:59:40;31.90;30.00
57660;DHT22;43485;45.680;15.702;2023-06-26T17:02:06;31.80;30.30
57660;DHT22;43485;45.680;15.702;2023-06-26T17:04:31;31.70;31.00
57660;DHT22;43485;45.680;15.702;2023-06-26T17:06:58;31.60;31.10